Time;durP1;ratioP1;P1;durP2;ratioP2;P2;SDS_P1;SDS_P2;PMS_P1;PMS_P2;Temp;Humidity;BMP_temperature;BMP_pressure;BME280_temperature;BME280_humidity;BME280_pressure;Samples;Min_cycle;Max_cycle;Signal;HPM_P1;HPM_P2
2021/09/28 00:01:44;;;;;;;20.67;18.60;;;15.70;99.90;;;14.74;100.00;98373.88;4984139;28;20564;-70
2021/09/28 00:04:11;;;;;;;21.30;19.00;;;15.60;99.90;;;14.64;100.00;98366.28;4983576;28;20564;-70
2021/09/28 00:06:39;;;;;;;21.53;17.63;;;15.60;99.90;;;14.62;100.00;98362.13;4997943;28;20664;-70
2021/09/28 00:09:06;;;;;;;21.40;19.13;;;15.60;99.90;;;14.59;100.00;98366.13;4995719;28;20554;-70
2021/09/28 00:11:33;;;;;;;19.97;17.80;;;15.60;99.90;;;14.57;100.00;98365.53;4982344;28;20456;-70
2021/09/28 00:14:00;;;;;;;20.57;18.37;;;15.50;99.90;;;14.49;100.00;98371.31;4987388;28;20467;-70
2021/09/28 00:16:28;;;;;;;21.07;18.93;;;15.50;99.90;;;14.44;100.00;98367.38;4994209;28;20479;-70
2021/09/28 00:18:55;;;;;;;19.97;17.90;;;15.40;99.90;;;14.35;100.00;98374.22;4993882;28;21988;-70
2021/09/28 00:21:23;;;;;;;20.70;18.57;;;15.40;99.90;;;14.21;100.00;98378.19;4988651;28;20980;-70
2021/09/28 00:23:52;;;;;;;19.70;17.80;;;15.20;99.90;;;14.13;100.00;98372.00;4990328;28;20464;-70
2021/09/28 00:26:19;;;;;;;18.87;17.03;;;15.10;99.90;;;14.06;100.00;98376.72;4988917;28;20460;-70
2021/09/28 00:28:46;;;;;;;19.83;16.90;;;15.00;99.90;;;14.05;100.00;98364.19;4995764;28;20479;-69
2021/09/28 00:31:13;;;;;;;19.20;17.37;;;15.00;99.90;;;14.01;100.00;98373.84;4978390;28;20602;-69
2021/09/28 00:33:40;;;;;;;20.03;18.03;;;15.00;99.90;;;13.90;100.00;98372.72;4990201;28;20479;-70
2021/09/28 00:36:07;;;;;;;20.27;18.30;;;14.80;99.90;;;13.88;100.00;98370.25;4979078;28;20567;-70
2021/09/28 00:38:34;;;;;;;20.10;18.07;;;14.80;99.90;;;14.12;100.00;98374.97;4980101;28;20550;-70
2021/09/28 00:41:02;;;;;;;20.17;18.07;;;15.00;99.90;;;14.07;100.00;98375.66;4986158;28;20469;-70
2021/09/28 00:43:46;;;;;;;18.83;16.93;;;15.00;99.90;;;13.86;100.00;98372.34;4979416;28;20460;-70
2021/09/28 00:46:13;;;;;;;20.47;18.37;;;14.90;99.90;;;13.71;100.00;98374.63;4985888;28;20546;-70
2021/09/28 00:48:40;;;;;;;19.40;17.50;;;14.70;99.90;;;13.60;100.00;98389.78;4971009;28;20498;-70
2021/09/28 00:51:08;;;;;;;20.40;18.30;;;14.60;99.90;;;13.59;100.00;98374.56;4968618;28;20535;-70
2021/09/28 00:53:38;;;;;;;23.70;20.13;;;14.60;99.90;;;13.58;100.00;98378.34;4991687;28;20464;-69
2021/09/28 00:56:07;;;;;;;22.33;20.10;;;14.50;99.90;;;13.72;100.00;98374.41;4965096;28;20476;-68
2021/09/28 00:58:35;;;;;;;21.80;19.60;;;14.60;99.90;;;13.68;100.00;98375.09;4988924;28;20480;-70
2021/09/28 01:01:04;;;;;;;19.57;17.67;;;14.60;99.90;;;13.70;100.00;98383.84;4991324;28;20455;-70
2021/09/28 01:03:32;;;;;;;22.10;19.67;;;14.60;99.90;;;13.50;100.00;98379.47;4997606;28;20975;-71
2021/09/28 01:05:59;;;;;;;21.43;19.40;;;14.50;99.90;;;13.53;100.00;98389.06;5003764;28;20471;-70
2021/09/28 01:08:27;;;;;;;21.00;18.90;;;14.50;99.90;;;13.43;100.00;98386.84;4985540;28;20913;-70
2021/09/28 01:10:55;;;;;;;22.10;19.87;;;14.40;99.90;;;13.53;100.00;98368.16;4990188;28;20460;-70
2021/09/28 01:13:26;;;;;;;21.87;19.37;;;14.50;99.90;;;13.64;100.00;98373.88;4979467;28;20451;-70
2021/09/28 01:16:07;;;;;;;24.27;20.50;;;14.60;99.90;;;13.59;100.00;98369.97;4985793;28;20508;-70
2021/09/28 01:18:37;;;;;;;21.80;19.20;;;14.60;99.90;;;13.69;100.00;98371.31;4982040;28;20491;-70
2021/09/28 01:21:08;;;;;;;23.90;19.50;;;14.60;99.90;;;13.59;100.00;98371.84;4985280;28;20453;-70
2021/09/28 01:23:36;;;;;;;22.73;20.43;;;14.60;99.90;;;13.60;100.00;98371.63;4989660;28;20456;-70
2021/09/28 01:26:03;;;;;;;22.87;20.60;;;14.60;99.90;;;13.53;100.00;98379.00;4982965;28;20549;-70
2021/09/28 01:28:30;;;;;;;23.37;19.40;;;14.50;99.90;;;13.45;100.00;98376.59;4984177;28;20641;-70
2021/09/28 01:30:58;;;;;;;21.90;19.70;;;14.50;99.90;;;13.70;100.00;98378.41;4989388;28;20473;-70
2021/09/28 01:33:25;;;;;;;24.83;21.00;;;14.60;99.90;;;13.62;100.00;98376.00;4995160;28;20459;-70
2021/09/28 01:35:52;;;;;;;23.13;20.67;;;14.70;99.90;;;13.82;100.00;98398.31;4983757;28;20491;-70
2021/09/28 01:38:21;;;;;;;21.37;19.27;;;14.70;99.90;;;14.01;100.00;98407.28;4987917;28;20542;-70
2021/09/28 01:40:48;;;;;;;21.40;19.30;;;14.90;99.90;;;14.05;100.00;98410.38;4981028;28;20540;-70
2021/09/28 01:43:15;;;;;;;21.50;19.20;;;15.00;99.90;;;14.06;100.00;98417.47;4964342;28;20543;-71
2021/09/28 01:45:44;;;;;;;21.90;19.70;;;15.00;99.90;;;14.14;100.00;98417.13;4985344;28;20487;-70
2021/09/28 01:48:11;;;;;;;19.27;17.50;;;15.00;99.90;;;14.06;100.00;98420.19;4993313;28;20451;-70
2021/09/28 01:50:38;;;;;;;20.60;18.57;;;15.10;99.90;;;14.22;100.00;98417.91;4973955;28;20492;-69
2021/09/28 01:53:05;;;;;;;17.37;15.77;;;15.10;99.90;;;14.28;100.00;98423.25;4999086;28;20467;-69
2021/09/28 01:55:34;;;;;;;16.43;14.83;;;15.20;99.90;;;14.36;100.00;98423.97;4990959;28;20515;-70
2021/09/28 01:58:03;;;;;;;14.70;13.30;;;15.20;99.90;;;14.43;100.00;98420.09;4986108;28;20891;-69
2021/09/28 02:00:30;;;;;;;15.63;14.13;;;15.30;99.90;;;14.27;100.00;98429.75;4986588;28;20496;-70
2021/09/28 02:02:58;;;;;;;14.73;13.10;;;15.20;99.90;;;14.17;100.00;98422.09;4976193;28;20459;-70
2021/09/28 02:05:25;;;;;;;15.63;14.07;;;15.20;99.90;;;14.16;100.00;98425.06;4995189;28;20476;-70
2021/09/28 02:07:52;;;;;;;15.87;14.37;;;15.20;99.90;;;13.97;100.00;98410.69;4987665;28;20532;-70
2021/09/28 02:10:19;;;;;;;15.57;13.93;;;15.10;99.90;;;14.07;100.00;98438.13;4994804;28;20517;-70
2021/09/28 02:12:47;;;;;;;14.97;13.37;;;15.10;99.90;;;14.10;100.00;98442.28;4972959;28;20488;-70
2021/09/28 02:15:14;;;;;;;15.00;13.70;;;15.10;99.90;;;14.33;100.00;98449.75;4987301;28;20487;-70
2021/09/28 02:17:42;;;;;;;14.47;13.07;;;15.20;99.90;;;14.33;100.00;98452.47;4987310;28;20468;-70
2021/09/28 02:20:10;;;;;;;13.93;12.17;;;15.30;99.90;;;14.43;100.00;98450.00;4985183;28;20823;-71
2021/09/28 02:22:38;;;;;;;13.97;12.57;;;15.40;99.90;;;14.43;99.78;98457.34;4986353;28;20479;-69
2021/09/28 02:25:07;;;;;;;15.17;12.27;;;15.40;99.70;;;14.66;98.66;98456.59;4982742;28;20578;-69
2021/09/28 02:27:34;;;;;;;16.13;13.47;;;15.50;98.70;;;14.50;98.81;98463.50;4990027;28;21281;-69
2021/09/28 02:30:02;;;;;;;14.20;12.90;;;15.50;98.00;;;14.62;98.55;98471.69;4983010;28;20615;-69
2021/09/28 02:32:29;;;;;;;13.10;11.90;;;15.60;98.30;;;14.62;97.90;98460.81;4985285;28;20460;-68
2021/09/28 02:34:56;;;;;;;12.57;11.50;;;15.60;97.40;;;14.50;98.41;98468.94;4966996;28;20561;-68
2021/09/28 02:37:23;;;;;;;12.40;11.40;;;15.50;97.40;;;14.42;98.98;98472.81;4979447;28;20552;-69
2021/09/28 02:39:50;;;;;;;10.00;9.10;;;15.50;98.00;;;14.43;97.98;98484.53;4970188;28;20492;-70
2021/09/28 02:42:17;;;;;;;7.20;6.60;;;15.40;96.80;;;14.28;96.66;98484.91;4959304;28;20492;-70
2021/09/28 02:44:44;;;;;;;5.80;5.30;;;15.40;95.20;;;14.21;96.16;98476.84;4986885;28;20483;-70
2021/09/28 02:47:12;;;;;;;5.17;4.77;;;15.30;94.60;;;14.13;96.01;98479.88;4985889;28;20460;-70
2021/09/28 02:49:39;;;;;;;3.90;3.50;;;15.20;94.50;;;14.00;95.12;98467.25;4995171;28;20504;-70
2021/09/28 02:52:07;;;;;;;3.00;2.33;;;15.20;94.00;;;14.06;94.00;98490.81;4981077;28;20555;-70
2021/09/28 02:54:34;;;;;;;2.20;2.10;;;15.10;93.00;;;13.91;93.72;98491.19;4991327;28;20485;-70
2021/09/28 02:57:01;;;;;;;2.33;2.00;;;15.00;92.50;;;13.76;94.28;98491.56;4993387;28;20465;-70
2021/09/28 02:59:28;;;;;;;1.73;1.63;;;14.90;92.90;;;13.71;93.35;98488.66;4985622;28;20785;-71
2021/09/28 03:01:55;;;;;;;1.70;1.60;;;14.80;92.30;;;13.64;93.55;98501.50;4981659;28;20537;-70
2021/09/28 03:04:23;;;;;;;2.00;1.47;;;14.70;92.50;;;13.45;94.57;98491.41;4992105;28;20493;-70
2021/09/28 03:06:50;;;;;;;3.37;1.43;;;14.60;93.20;;;13.29;92.83;98509.06;4989739;28;20551;-70
2021/09/28 03:09:17;;;;;;;2.17;1.63;;;14.40;91.70;;;13.01;94.33;98507.59;4990266;28;20480;-70
2021/09/28 03:11:44;;;;;;;2.97;1.50;;;14.20;92.50;;;12.85;95.04;98516.28;4991631;28;20456;-69
2021/09/28 03:14:30;;;;;;;2.90;1.40;;;14.00;93.10;;;12.77;95.65;98511.94;4991590;28;20546;-69
2021/09/28 03:16:57;;;;;;;2.53;1.63;;;13.90;93.70;;;12.72;96.26;98509.88;4981123;28;20983;-70
2021/09/28 03:19:25;;;;;;;2.50;2.00;;;13.90;94.30;;;12.75;95.69;98511.31;4976891;28;20476;-70
2021/09/28 03:21:53;;;;;;;1.77;1.67;;;13.90;93.90;;;12.73;95.69;98506.09;4990041;28;20464;-70
2021/09/28 03:24:20;;;;;;;1.60;1.50;;;13.90;94.10;;;12.69;95.45;98498.63;4983701;28;20480;-71
2021/09/28 03:26:48;;;;;;;2.10;1.90;;;13.80;93.80;;;12.63;96.23;98508.44;4997911;28;20534;-71
2021/09/28 03:29:15;;;;;;;1.70;1.40;;;13.80;94.30;;;12.67;95.59;98509.69;4987970;28;20476;-71
2021/09/28 03:31:42;;;;;;;1.40;1.30;;;13.80;93.90;;;12.68;94.92;98508.66;4984883;28;21060;-70
2021/09/28 03:34:09;;;;;;;3.83;1.20;;;13.80;93.30;;;12.67;95.37;98512.41;4997503;28;20578;-71
2021/09/28 03:36:37;;;;;;;1.80;1.60;;;13.80;93.50;;;12.81;95.64;98521.28;4974411;28;20460;-70
2021/09/28 03:39:04;;;;;;;2.27;1.73;;;13.80;94.30;;;12.85;95.09;98527.13;5001993;28;20548;-71
2021/09/28 03:41:31;;;;;;;1.63;1.53;;;13.90;93.80;;;12.90;93.94;98538.13;4970295;28;20543;-71
2021/09/28 03:43:58;;;;;;;6.30;1.40;;;14.00;93.00;;;12.82;93.03;98535.69;4986670;28;20497;-70
2021/09/28 03:46:25;;;;;;;1.63;1.53;;;14.00;92.10;;;12.84;93.14;98545.25;4967514;28;20488;-70
2021/09/28 03:48:52;;;;;;;1.63;1.53;;;14.00;92.00;;;12.88;93.42;98548.38;4967801;28;21150;-70
2021/09/28 03:51:19;;;;;;;0.90;0.90;;;13.90;92.50;;;12.81;92.81;98544.84;4984429;28;20468;-71
2021/09/28 03:53:51;;;;;;;1.20;1.10;;;14.00;92.10;;;12.84;91.69;98555.28;4994686;28;20543;-70
2021/09/28 03:56:18;;;;;;;1.70;1.60;;;14.00;91.20;;;12.83;91.75;98565.28;4986208;28;20468;-70
2021/09/28 03:58:45;;;;;;;1.50;1.40;;;13.90;91.00;;;12.82;91.57;98565.53;4972297;28;20459;-69
2021/09/28 04:01:12;;;;;;;1.57;1.47;;;13.90;90.80;;;12.84;91.31;98566.13;4986777;28;20827;-69
2021/09/28 04:03:41;;;;;;;1.80;1.70;;;14.00;90.80;;;12.83;91.67;98569.88;4987943;28;20626;-69
2021/09/28 04:06:08;;;;;;;3.20;1.60;;;13.90;90.90;;;12.85;90.97;98568.59;4977401;28;20568;-70
2021/09/28 04:08:35;;;;;;;1.80;1.70;;;14.00;90.70;;;12.78;90.61;98564.25;4984008;28;20454;-69
2021/09/28 04:11:04;;;;;;;3.00;1.53;;;13.90;90.20;;;12.79;90.50;98568.63;5000785;28;20476;-70
2021/09/28 04:13:31;;;;;;;1.60;1.50;;;13.90;90.30;;;12.61;91.05;98567.47;5004565;28;20928;-70
2021/09/28 04:15:59;;;;;;;3.50;1.83;;;13.80;90.40;;;12.63;91.22;98564.56;4986593;28;20561;-70
2021/09/28 04:18:27;;;;;;;2.00;1.80;;;13.70;90.70;;;12.54;92.23;98558.56;4991903;28;20522;-69
2021/09/28 04:20:55;;;;;;;2.07;1.60;;;13.70;91.20;;;12.57;91.88;98561.63;5002384;28;20517;-70
2021/09/28 04:23:22;;;;;;;2.20;1.90;;;13.70;91.20;;;12.56;91.93;98568.13;4972472;28;20448;-70
2021/09/28 04:25:50;;;;;;;1.80;1.63;;;13.60;91.10;;;12.47;92.18;98578.38;4972676;28;20554;-69
2021/09/28 04:28:18;;;;;;;2.87;1.90;;;13.60;91.30;;;12.56;92.85;98581.66;4993403;28;20972;-69
2021/09/28 04:30:45;;;;;;;2.80;1.97;;;13.60;91.90;;;12.65;92.44;98574.13;4984228;28;20473;-69
2021/09/28 04:33:12;;;;;;;2.20;2.00;;;13.70;91.90;;;12.61;91.95;98583.75;4994490;28;20488;-69
2021/09/28 04:35:39;;;;;;;4.17;1.90;;;13.70;91.30;;;12.53;92.75;98586.72;4975713;28;20507;-69
2021/09/28 04:38:06;;;;;;;1.90;1.80;;;13.60;91.90;;;12.43;92.12;98576.28;4981006;28;20981;-69
2021/09/28 04:40:33;;;;;;;2.30;2.00;;;13.60;91.20;;;12.49;92.51;98588.16;4977020;28;20480;-69
2021/09/28 04:43:00;;;;;;;3.20;2.40;;;13.50;91.80;;;12.55;93.21;98593.56;4992657;28;20459;-69
2021/09/28 04:45:29;;;;;;;2.77;2.57;;;13.60;92.50;;;12.46;92.68;98592.97;4995528;28;20545;-69
2021/09/28 04:47:56;;;;;;;3.30;2.67;;;13.50;91.90;;;12.40;93.05;98599.25;4998787;28;20952;-69
2021/09/28 04:50:23;;;;;;;2.90;2.70;;;13.50;91.80;;;12.36;92.86;98587.19;4986703;28;20506;-69
2021/09/28 04:52:50;;;;;;;3.27;2.97;;;13.50;91.90;;;12.60;93.09;98592.91;4985623;28;20547;-69
2021/09/28 04:55:17;;;;;;;4.10;3.63;;;13.60;92.50;;;12.47;93.08;98597.34;4989178;28;20476;-69
2021/09/28 04:57:44;;;;;;;4.77;3.57;;;13.60;92.10;;;12.47;93.37;98605.47;4988662;28;21028;-69
2021/09/28 05:00:12;;;;;;;6.03;4.90;;;13.50;92.40;;;12.61;93.47;98605.44;4997656;28;20547;-70
2021/09/28 05:02:41;;;;;;;3.53;3.23;;;13.60;92.90;;;12.54;92.79;98607.34;4988652;28;20984;-70
2021/09/28 05:05:09;;;;;;;5.47;3.93;;;13.60;92.00;;;12.58;91.75;98605.84;4992027;28;21110;-69
2021/09/28 05:07:36;;;;;;;4.40;4.00;;;13.60;91.50;;;12.49;92.31;98607.13;4992348;28;20493;-69
2021/09/28 05:10:04;;;;;;;7.33;4.40;;;13.60;91.60;;;12.43;91.90;98606.94;4990105;28;20479;-69
2021/09/28 05:12:31;;;;;;;4.80;4.43;;;13.60;91.20;;;12.41;92.29;98613.63;4988633;28;20494;-69
2021/09/28 05:14:58;;;;;;;5.87;5.27;;;13.50;91.40;;;12.24;91.87;98605.94;4986323;28;20468;-69
2021/09/28 05:17:26;;;;;;;5.90;5.27;;;13.40;90.90;;;12.13;91.68;98584.91;4984542;28;20460;-69
2021/09/28 05:19:54;;;;;;;6.13;5.50;;;13.40;90.90;;;12.31;91.52;98605.94;4987420;28;20475;-69
2021/09/28 05:22:21;;;;;;;5.50;5.10;;;13.40;90.90;;;12.31;91.87;98608.63;4991397;28;20556;-70
2021/09/28 05:24:48;;;;;;;7.60;5.57;;;13.40;91.20;;;12.23;91.97;98625.13;4962917;28;20943;-71
2021/09/28 05:27:15;;;;;;;6.27;5.73;;;13.30;91.00;;;12.24;92.07;98621.38;4978794;28;20536;-70
2021/09/28 05:29:42;;;;;;;7.60;6.00;;;13.30;91.20;;;12.21;91.80;98619.06;4986164;28;20473;-70
2021/09/28 05:32:12;;;;;;;7.93;7.13;;;13.30;91.00;;;12.15;92.19;98623.50;4988209;28;20479;-70
2021/09/28 05:34:39;;;;;;;6.97;6.37;;;13.30;91.40;;;12.16;92.80;98625.97;4975444;28;20566;-70
2021/09/28 05:37:08;;;;;;;7.30;6.30;;;13.30;91.80;;;12.17;92.81;98630.34;4995717;28;20533;-71
2021/09/28 05:39:35;;;;;;;8.33;7.53;;;13.30;91.70;;;12.19;92.27;98622.81;4973551;28;20461;-70
2021/09/28 05:42:02;;;;;;;6.53;5.90;;;13.30;91.60;;;12.30;92.30;98631.38;4993999;28;20547;-71
2021/09/28 05:44:29;;;;;;;8.23;7.27;;;13.30;91.70;;;12.35;91.11;98634.25;4988854;28;21053;-65
2021/09/28 05:46:56;;;;;;;8.50;7.80;;;13.40;90.80;;;12.41;90.30;98630.72;4984968;28;21060;-65
2021/09/28 05:49:23;;;;;;;8.27;7.47;;;13.50;90.20;;;12.39;90.82;98635.53;4989737;28;20490;-63
2021/09/28 05:51:53;;;;;;;9.17;8.27;;;13.50;90.60;;;12.34;90.75;98643.44;4983568;28;20464;-66
2021/09/28 05:54:23;;;;;;;8.50;7.70;;;13.50;90.50;;;12.45;90.83;98634.66;4984487;28;20552;-65
2021/09/28 05:56:53;;;;;;;8.57;7.20;;;13.50;90.60;;;12.43;90.60;98636.75;4989761;28;20490;-64
2021/09/28 05:59:21;;;;;;;12.73;8.20;;;13.50;90.40;;;12.50;90.54;98644.88;4985435;28;20460;-64
2021/09/28 06:01:50;;;;;;;11.20;8.13;;;13.50;90.60;;;12.59;89.40;98645.47;4984345;28;21195;-65
2021/09/28 06:04:18;;;;;;;9.93;7.80;;;13.70;89.90;;;12.62;89.35;98650.47;4974879;28;20460;-64
2021/09/28 06:06:45;;;;;;;10.50;7.90;;;13.70;89.60;;;12.51;89.62;98646.53;4967776;28;20834;-66
2021/09/28 06:09:12;;;;;;;9.57;8.67;;;13.60;89.30;;;12.46;89.84;98658.00;4987988;28;20551;-66
2021/09/28 06:11:43;;;;;;;9.37;8.00;;;13.50;89.80;;;12.45;89.89;98660.94;4966832;28;21018;-65
2021/09/28 06:14:10;;;;;;;11.50;8.20;;;13.60;90.00;;;12.41;90.23;98655.09;4980631;28;20488;-65
2021/09/28 06:16:37;;;;;;;10.90;9.27;;;13.50;90.00;;;12.43;90.52;98665.72;4974687;28;20470;-69
2021/09/28 06:19:04;;;;;;;11.87;9.40;;;13.50;90.30;;;12.49;90.38;98659.47;4986854;28;20478;-65
2021/09/28 06:21:31;;;;;;;10.37;9.27;;;13.50;90.40;;;12.58;89.66;98660.88;4981234;28;20795;-65
2021/09/28 06:23:58;;;;;;;12.07;8.70;;;13.60;89.90;;;12.49;89.90;98656.75;4989777;28;20460;-63
2021/09/28 06:26:25;;;;;;;10.80;9.70;;;13.50;89.90;;;12.54;89.50;98664.25;4992547;28;20885;-64
2021/09/28 06:28:53;;;;;;;10.27;9.20;;;13.60;89.60;;;12.49;90.18;98664.88;4978024;28;20471;-64
2021/09/28 06:31:20;;;;;;;10.70;9.60;;;13.60;90.00;;;12.51;89.71;98657.38;4982110;28;20486;-64
2021/09/28 06:33:47;;;;;;;11.73;10.63;;;13.60;90.00;;;12.53;89.56;98662.59;4969359;28;20796;-64
2021/09/28 06:36:14;;;;;;;11.10;9.53;;;13.70;89.50;;;12.57;89.67;98653.81;4982885;28;20531;-64
2021/09/28 06:38:42;;;;;;;10.20;9.17;;;13.60;89.60;;;12.58;89.22;98651.94;5000830;28;20477;-64
2021/09/28 06:41:08;;;;;;;10.03;8.90;;;13.70;89.20;;;12.52;89.64;98663.63;4986073;28;20955;-64
2021/09/28 06:43:35;;;;;;;11.10;10.00;;;13.60;90.00;;;12.47;89.88;98659.66;4989326;28;20929;-64
2021/09/28 06:46:05;;;;;;;13.87;9.43;;;13.60;90.10;;;12.52;90.94;98658.22;4970857;28;20512;-64
2021/09/28 06:48:32;;;;;;;10.40;9.40;;;13.60;90.30;;;12.52;90.20;98658.22;4976293;28;20472;-65
2021/09/28 06:50:59;;;;;;;13.10;9.80;;;13.60;90.20;;;12.60;90.21;98663.41;4961397;28;20567;-63
2021/09/28 06:53:26;;;;;;;12.10;9.50;;;13.60;90.30;;;12.61;89.78;98660.47;4964317;28;20492;-64
2021/09/28 06:55:54;;;;;;;11.23;10.07;;;13.70;90.10;;;12.64;89.68;98666.53;4976249;28;20491;-65
2021/09/28 06:58:21;;;;;;;9.80;8.80;;;13.70;89.70;;;12.55;89.96;98676.75;4987047;28;20845;-64
2021/09/28 07:00:50;;;;;;;9.07;8.17;;;13.60;90.00;;;12.67;89.86;98669.66;4977528;28;20478;-64
2021/09/28 07:03:19;;;;;;;16.43;9.70;;;13.70;90.10;;;12.82;89.88;98680.22;4976419;28;20537;-64
2021/09/28 07:05:46;;;;;;;9.73;8.83;;;13.80;90.20;;;12.75;89.01;98677.53;4985443;28;20505;-65
2021/09/28 07:08:13;;;;;;;8.80;7.43;;;13.80;89.00;;;12.87;87.69;98685.00;4982682;28;20452;-63
2021/09/28 07:10:41;;;;;;;12.67;8.60;;;13.90;87.90;;;12.87;88.28;98679.59;4970905;28;20484;-63
2021/09/28 07:13:08;;;;;;;16.77;8.37;;;13.90;88.50;;;12.98;87.19;98681.63;4984423;28;20464;-64
2021/09/28 07:15:35;;;;;;;8.73;7.93;;;14.00;87.60;;;12.91;87.15;98669.16;4980229;28;20472;-63
2021/09/28 07:18:04;;;;;;;8.70;7.80;;;14.00;87.10;;;13.06;86.48;98682.44;4965474;28;20456;-64
2021/09/28 07:20:33;;;;;;;8.33;7.07;;;14.10;86.70;;;13.01;86.11;98686.63;4985665;28;20470;-64
2021/09/28 07:23:00;;;;;;;7.80;7.03;;;14.10;86.20;;;13.13;85.19;98689.47;4988306;28;20817;-63
2021/09/28 07:25:26;;;;;;;8.77;8.03;;;14.10;85.40;;;13.10;84.95;98698.06;4976991;28;20490;-64
2021/09/28 07:28:00;;;;;;;9.63;8.20;;;14.20;85.00;;;13.16;85.16;98705.31;4985626;28;20468;-63
2021/09/28 07:30:27;;;;;;;9.37;8.17;;;14.20;85.10;;;13.12;85.56;98695.16;4986167;28;20472;-64
2021/09/28 07:32:54;;;;;;;9.23;8.30;;;14.20;85.40;;;13.25;85.19;98703.19;4983525;28;20500;-64
2021/09/28 07:35:21;;;;;;;8.40;7.60;;;14.20;85.30;;;13.16;85.08;98704.50;4986726;28;20884;-63
2021/09/28 07:37:49;;;;;;;8.20;7.50;;;14.30;85.10;;;13.36;84.73;98692.72;4988802;28;20940;-62
2021/09/28 07:40:19;;;;;;;9.07;8.13;;;14.40;85.20;;;13.30;85.38;98695.25;4986370;28;20901;-62
2021/09/28 07:42:47;;;;;;;8.77;7.93;;;14.30;85.10;;;13.29;85.04;98704.44;4988813;28;20463;-64
2021/09/28 07:45:17;;;;;;;8.93;7.47;;;14.40;85.00;;;13.26;85.49;98699.44;4966687;28;20572;-62
2021/09/28 07:47:44;;;;;;;7.73;6.93;;;14.40;85.20;;;13.55;84.72;98710.78;4985142;28;20552;-63
2021/09/28 07:50:12;;;;;;;8.77;7.87;;;14.50;85.10;;;13.51;84.27;98706.03;4986279;28;20470;-64
2021/09/28 07:52:40;;;;;;;8.57;7.70;;;14.50;84.70;;;13.33;85.18;98710.25;4990662;28;20482;-65
2021/09/28 07:55:09;;;;;;;8.23;7.40;;;14.40;84.90;;;13.10;85.78;98708.06;4982582;28;20543;-62
2021/09/28 07:57:37;;;;;;;8.07;7.30;;;14.20;85.10;;;13.13;85.78;98704.94;4971104;28;20457;-62
2021/09/28 08:00:06;;;;;;;8.80;7.63;;;14.20;85.40;;;13.36;85.84;98700.84;4965124;28;20453;-68
2021/09/28 08:02:35;;;;;;;9.33;8.13;;;14.30;85.80;;;13.76;84.02;98702.53;4981958;28;20508;-79
2021/09/28 08:05:02;;;;;;;8.03;7.00;;;14.60;84.90;;;13.98;82.72;98703.00;4967791;28;20488;-76
2021/09/28 08:07:29;;;;;;;7.80;7.10;;;14.90;83.70;;;14.26;81.24;98693.56;4983765;28;20551;-77
2021/09/28 08:09:56;;;;;;;8.23;7.53;;;15.20;82.50;;;14.40;80.41;98691.53;4973433;28;20471;-76
2021/09/28 08:12:24;;;;;;;8.37;7.47;;;15.40;81.90;;;14.35;79.84;98700.41;4964508;28;20511;-76
2021/09/28 08:14:53;;;;;;;8.20;7.07;;;15.40;81.10;;;14.35;80.34;98703.13;4981333;28;20549;-76
2021/09/28 08:17:21;;;;;;;7.83;7.13;;;15.40;81.10;;;14.40;79.30;98697.81;4981655;28;20829;-76
2021/09/28 08:19:49;;;;;;;7.93;7.20;;;15.40;80.20;;;14.51;78.34;98696.25;4985529;28;20440;-76
2021/09/28 08:22:17;;;;;;;7.73;6.93;;;15.50;79.60;;;14.75;76.93;98693.75;4970832;28;20485;-76
2021/09/28 08:24:44;;;;;;;7.67;6.90;;;15.70;78.80;;;15.06;76.11;98689.19;4963753;28;20849;-76
2021/09/28 08:30:03;;;;;;;9.50;6.43;;;16.00;77.50;;;14.72;75.44;98696.94;4989919;28;20464;-76
2021/09/28 08:32:31;;;;;;;9.60;6.80;;;15.80;75.80;;;14.53;76.22;98696.84;4966810;28;20575;-70
2021/09/28 08:34:58;;;;;;;7.30;6.60;;;15.50;76.40;;;14.72;75.92;98695.03;4992919;28;20599;-70
2021/09/28 08:37:26;;;;;;;7.03;6.23;;;15.70;76.60;;;14.77;75.90;98690.78;4983333;28;20464;-69
2021/09/28 08:39:54;;;;;;;6.67;6.07;;;15.80;76.10;;;14.68;75.76;98699.22;4964448;28;20467;-66
2021/09/28 08:42:21;;;;;;;6.17;5.60;;;15.70;75.60;;;14.43;75.33;98693.84;4983430;28;20507;-66
2021/09/28 08:44:48;;;;;;;5.90;5.40;;;15.60;75.00;;;14.52;75.28;98691.66;4969326;28;20683;-73
2021/09/28 08:47:17;;;;;;;4.90;4.50;;;15.60;75.20;;;14.58;73.99;98691.59;4985383;28;20564;-67
2021/09/28 08:49:44;;;;;;;8.23;5.43;;;15.60;74.20;;;14.56;74.29;98701.03;4995959;28;20456;-67
2021/09/28 08:52:11;;;;;;;5.90;5.43;;;15.50;74.20;;;14.83;74.00;98696.16;4980758;28;20477;-67
2021/09/28 08:54:39;;;;;;;8.00;5.20;;;15.80;74.60;;;15.18;72.59;98697.41;4984658;28;20567;-81
2021/09/28 08:57:08;;;;;;;6.10;5.50;;;16.00;73.50;;;15.43;71.56;98677.41;4965908;28;20840;-79
2021/09/28 08:59:49;;;;;;;8.67;5.50;;;16.40;73.00;;;15.79;69.78;98691.97;4986557;28;20460;-66
2021/09/28 09:02:18;;;;;;;4.73;4.23;;;16.70;71.90;;;15.75;68.20;98688.06;4979038;28;20449;-64
2021/09/28 09:05:02;;;;;;;6.07;4.80;;;16.70;69.80;;;15.60;69.07;98683.03;4983421;28;20476;-64
2021/09/28 09:07:30;;;;;;;5.30;4.80;;;16.60;69.90;;;15.49;69.81;98681.94;4984436;28;20829;-64
2021/09/28 09:09:56;;;;;;;9.77;8.77;;;16.50;70.20;;;15.67;69.58;98688.38;4983794;28;20559;-63
2021/09/28 09:12:32;;;;;;;6.00;5.50;;;16.60;70.40;;;15.56;70.09;98682.69;4989533;28;20583;-64
2021/09/28 09:15:21;;;;;;;6.10;5.43;;;16.60;70.30;;;15.42;70.23;98681.19;4966779;28;20563;-64
2021/09/28 09:17:52;;;;;;;5.13;4.70;;;16.50;70.80;;;15.12;71.19;98684.75;4983573;28;20499;-64
2021/09/28 09:20:30;;;;;;;5.03;4.50;;;16.30;70.20;;;15.07;72.00;98690.00;4985809;28;21003;-64
2021/09/28 09:23:14;;;;;;;4.70;4.30;;;16.10;70.60;;;14.96;70.82;98683.47;4970366;28;20822;-64
2021/09/28 09:25:41;;;;;;;3.50;3.20;;;16.00;69.60;;;14.83;70.06;98690.72;4980581;28;21052;-64
2021/09/28 09:28:20;;;;;;;3.80;3.47;;;16.00;68.70;;;15.38;68.83;98679.97;4988833;28;20588;-65
2021/09/28 09:30:47;;;;;;;3.80;3.50;;;16.20;68.90;;;15.73;68.09;98669.19;4982388;28;20522;-65
2021/09/28 09:33:25;;;;;;;3.73;3.43;;;16.60;68.60;;;15.95;65.91;98676.03;4968709;28;20453;-65
2021/09/28 09:35:58;;;;;;;3.90;3.07;;;16.80;67.20;;;16.38;64.52;98677.59;4978436;28;20483;-65
2021/09/28 09:38:26;;;;;;;3.90;3.57;;;17.10;66.10;;;16.28;64.25;98674.63;4979543;28;20451;-65
2021/09/28 09:40:54;;;;;;;6.13;4.17;;;17.40;65.30;;;16.39;64.58;98673.81;4980200;28;20558;-65
2021/09/28 09:43:31;;;;;;;4.30;3.17;;;17.40;65.80;;;15.80;64.79;98682.72;4995051;28;20976;-65
2021/09/28 09:46:14;;;;;;;3.97;3.43;;;16.90;64.50;;;15.76;65.65;98677.97;4964330;28;20527;-64
2021/09/28 09:48:46;;;;;;;4.17;3.87;;;16.80;65.30;;;15.41;66.89;98679.53;4981573;28;20515;-65
2021/09/28 09:51:16;;;;;;;4.07;3.33;;;16.50;65.70;;;15.19;68.29;98671.88;4985061;28;20998;-65
2021/09/28 09:53:58;;;;;;;4.70;3.80;;;16.30;66.40;;;15.12;68.78;98674.66;4991586;28;20803;-64
2021/09/28 09:56:42;;;;;;;4.87;4.37;;;16.10;66.60;;;15.12;69.19;98665.69;4984764;28;20456;-63
2021/09/28 09:59:10;;;;;;;5.30;4.07;;;16.10;67.20;;;15.52;68.35;98659.66;4983389;28;20543;-65
2021/09/28 10:01:37;;;;;;;5.17;3.80;;;16.40;67.40;;;15.70;65.20;98656.06;4988843;28;20462;-65
2021/09/28 10:04:07;;;;;;;2.47;2.00;;;16.60;65.30;;;15.99;61.92;98663.59;4985335;28;20487;-65
2021/09/28 10:06:34;;;;;;;3.23;2.37;;;16.90;62.80;;;16.31;60.48;98660.56;4986005;28;20463;-65
2021/09/28 10:09:02;;;;;;;3.00;2.70;;;17.20;62.00;;;16.16;59.98;98668.38;4984396;28;20476;-64
2021/09/28 10:11:36;;;;;;;2.50;2.30;;;17.20;61.00;;;16.16;59.43;98671.09;4981355;28;20487;-64
2021/09/28 10:14:04;;;;;;;2.60;2.40;;;17.20;60.40;;;16.07;60.12;98676.88;4983134;28;20456;-64
2021/09/28 10:16:39;;;;;;;2.93;2.50;;;17.10;60.30;;;15.92;60.94;98660.16;4983667;28;20466;-64
2021/09/28 10:19:50;;;;;;;2.67;1.90;;;17.00;60.60;;;16.35;56.89;98656.28;4983008;28;20456;-64
2021/09/28 10:22:52;;;;;;;2.03;1.50;;;17.20;59.30;;;16.75;55.93;98654.69;4988003;28;20456;-63